Time;durP1;ratioP1;P1;durP2;ratioP2;P2;SDS_P1;SDS_P2;PMS_P1;PMS_P2;Temp;Humidity;BMP_temperature;BMP_pressure;BME280_temperature;BME280_humidity;BME280_pressure;Samples;Min_cycle;Max_cycle;Signal;HPM_P1;HPM_P2
2024/03/24 00:01:39;;;;;;;4.97;2.40;;;205.50;2252.80;;;;;;5102382;28;20012;-71
2024/03/24 00:04:05;;;;;;;6.40;2.92;;;205.50;2252.80;;;;;;5085381;28;20557;-75
2024/03/24 00:06:31;;;;;;;7.80;3.33;;;205.50;2252.80;;;;;;5112730;28;20029;-74
2024/03/24 00:08:56;;;;;;;5.60;2.70;;;205.50;2252.80;;;;;;5106016;28;20024;-73
2024/03/24 00:11:22;;;;;;;6.10;2.30;;;205.50;2252.80;;;;;;5113143;28;20080;-72
2024/03/24 00:13:48;;;;;;;3.88;1.88;;;205.50;2252.80;;;;;;5096121;28;20036;-72
2024/03/24 00:16:13;;;;;;;4.72;1.88;;;205.40;2252.80;;;;;;5095534;28;20057;-75
2024/03/24 00:18:39;;;;;;;2.70;1.60;;;205.40;2252.80;;;;;;5093946;28;20026;-72
2024/03/24 00:21:05;;;;;;;4.57;1.50;;;205.40;2252.80;;;;;;5109759;28;20055;-74
2024/03/24 00:23:30;;;;;;;4.30;1.70;;;205.40;2252.80;;;;;;5111135;28;20027;-75
2024/03/24 00:25:56;;;;;;;2.42;1.40;;;205.50;2252.80;;;;;;5102965;28;20047;-73
2024/03/24 00:28:22;;;;;;;2.40;1.50;;;205.40;2252.80;;;;;;5110105;28;20024;-74
2024/03/24 00:30:47;;;;;;;2.83;1.50;;;205.50;2252.80;;;;;;5111227;28;20115;-72
2024/03/24 00:33:13;;;;;;;3.22;1.92;;;205.50;2252.80;;;;;;5109612;28;20043;-73
2024/03/24 00:35:39;;;;;;;5.18;2.28;;;205.50;2252.80;;;;;;5108236;28;20047;-74
2024/03/24 00:38:05;;;;;;;3.45;1.77;;;205.40;2252.80;;;;;;5109653;28;20027;-74
2024/03/24 00:40:30;;;;;;;2.45;1.50;;;205.40;2252.80;;;;;;5110370;28;20389;-76
2024/03/24 00:42:56;;;;;;;7.28;1.70;;;205.40;2252.80;;;;;;5110420;28;20019;-73
2024/03/24 00:45:22;;;;;;;3.22;1.50;;;205.40;2252.80;;;;;;5108196;28;20395;-72
2024/03/24 00:47:49;;;;;;;1.75;1.33;;;205.40;2252.80;;;;;;5107656;28;20600;-73
2024/03/24 00:50:16;;;;;;;3.47;1.55;;;205.40;2252.80;;;;;;5107714;28;20127;-73
2024/03/24 00:52:41;;;;;;;2.72;1.27;;;205.30;2252.80;;;;;;5111527;28;20036;-72
2024/03/24 00:55:07;;;;;;;4.53;1.80;;;205.30;2252.80;;;;;;5110265;28;20042;-73
2024/03/24 00:57:33;;;;;;;3.28;1.42;;;205.30;2252.80;;;;;;5102064;28;20375;-74
2024/03/24 01:00:02;;;;;;;2.97;1.50;;;205.00;2252.80;;;;;;5109711;28;20035;-72
2024/03/24 01:02:28;;;;;;;3.28;1.85;;;205.30;2252.80;;;;;;5100355;28;20039;-72
2024/03/24 01:04:55;;;;;;;5.88;1.75;;;205.30;2252.80;;;;;;5106925;28;20399;-72
2024/03/24 01:07:20;;;;;;;3.33;1.70;;;205.30;2252.80;;;;;;5103338;28;20028;-73
2024/03/24 01:09:54;;;;;;;1.90;1.30;;;205.20;2252.80;;;;;;5101282;28;20027;-73
2024/03/24 01:12:22;;;;;;;3.15;1.50;;;205.10;2252.80;;;;;;5099593;28;20479;-76
2024/03/24 01:14:48;;;;;;;3.03;1.60;;;205.20;2252.80;;;;;;5095807;28;20072;-74
2024/03/24 01:17:13;;;;;;;3.10;1.55;;;205.10;2252.80;;;;;;5098546;28;20052;-74
2024/03/24 01:19:39;;;;;;;3.42;1.80;;;205.10;2252.80;;;;;;5102159;28;20024;-73
2024/03/24 01:22:05;;;;;;;3.17;1.88;;;205.00;2252.80;;;;;;5079575;28;21154;-75
2024/03/24 01:24:30;;;;;;;4.18;1.70;;;205.00;2252.80;;;;;;5104497;28;20018;-75
2024/03/24 01:26:56;;;;;;;3.05;1.70;;;204.90;2252.80;;;;;;5099420;28;20119;-74
2024/03/24 01:29:22;;;;;;;4.35;1.63;;;204.90;2252.80;;;;;;5097704;28;20418;-74
2024/03/24 01:31:47;;;;;;;3.45;1.70;;;204.90;2252.80;;;;;;5097655;28;20736;-74
2024/03/24 01:34:13;;;;;;;2.30;1.40;;;204.90;2252.80;;;;;;5102786;28;20063;-73
2024/03/24 01:36:38;;;;;;;2.10;1.50;;;204.80;2252.80;;;;;;5096466;28;20081;-75
2024/03/24 01:39:05;;;;;;;4.30;1.70;;;180.10;2252.80;;;;;;5092437;28;20040;-74
2024/03/24 01:41:30;;;;;;;2.40;1.55;;;180.10;2252.80;;;;;;5106400;28;20445;-74
2024/03/24 01:43:56;;;;;;;2.35;1.50;;;180.10;2252.80;;;;;;5112523;28;20023;-75
2024/03/24 01:46:23;;;;;;;4.10;1.75;;;180.00;2252.80;;;;;;5102545;28;20029;-74
2024/03/24 01:48:49;;;;;;;2.50;1.77;;;180.00;2252.80;;;;;;5103124;28;20020;-74
2024/03/24 01:51:17;;;;;;;5.45;2.80;;;179.90;2252.80;;;;;;5098273;28;20039;-73
2024/03/24 01:53:44;;;;;;;3.13;1.80;;;180.00;2252.80;;;;;;5098742;28;20032;-72
2024/03/24 01:56:10;;;;;;;2.40;1.48;;;180.00;2252.80;;;;;;5100453;28;20060;-73
2024/03/24 01:58:37;;;;;;;2.97;1.55;;;180.00;2252.80;;;;;;5078574;28;20066;-75
2024/03/24 02:01:03;;;;;;;3.10;1.60;;;180.00;2252.80;;;;;;5096720;28;20035;-73
2024/03/24 02:03:30;;;;;;;2.45;1.42;;;180.00;2252.80;;;;;;5101890;28;20028;-75
2024/03/24 02:05:57;;;;;;;2.53;1.42;;;180.10;2252.80;;;;;;5107676;28;20472;-74
2024/03/24 02:08:23;;;;;;;3.08;1.30;;;180.10;2252.80;;;;;;5101862;28;20466;-75
2024/03/24 02:10:49;;;;;;;2.83;1.30;;;180.10;2124.80;;;;;;5086600;28;20023;-74
2024/03/24 02:13:15;;;;;;;2.15;1.30;;;180.00;2252.80;;;;;;5111813;28;20031;-77
2024/03/24 02:15:40;;;;;;;2.55;1.30;;;180.00;2252.80;;;;;;5104689;28;20019;-74
2024/03/24 02:18:06;;;;;;;1.65;1.20;;;180.00;2252.80;;;;;;5106939;28;20047;-74
2024/03/24 02:20:32;;;;;;;2.55;1.40;;;179.90;2048.00;;;;;;5098307;28;20024;-74
2024/03/24 02:22:58;;;;;;;2.85;1.27;;;179.90;2124.80;;;;;;5102229;28;20042;-75
2024/03/24 02:25:23;;;;;;;2.90;1.42;;;179.90;2252.80;;;;;;5101551;28;20024;-74
2024/03/24 02:27:49;;;;;;;3.53;1.35;;;179.90;2252.80;;;;;;5106521;28;20058;-74
2024/03/24 02:30:15;;;;;;;1.70;1.20;;;179.90;2252.80;;;;;;5112511;28;20027;-74
2024/03/24 02:32:44;;;;;;;1.88;1.05;;;180.00;2252.80;;;;;;5112171;28;20024;-74
2024/03/24 02:35:11;;;;;;;1.98;0.90;;;179.90;2252.80;;;;;;5102501;28;20040;-74
2024/03/24 02:37:36;;;;;;;3.53;1.40;;;179.90;2073.60;;;;;;5100505;28;20027;-75
2024/03/24 02:40:05;;;;;;;2.45;1.25;;;179.80;2252.80;;;;;;5095432;28;20135;-73
2024/03/24 02:42:31;;;;;;;1.95;1.08;;;179.90;1945.60;;;;;;5102366;28;20019;-74
2024/03/24 02:44:57;;;;;;;2.50;1.10;;;179.80;2252.80;;;;;;5112145;28;20066;-77
2024/03/24 02:47:23;;;;;;;2.25;1.10;;;179.80;2252.80;;;;;;5111803;28;20765;-74
2024/03/24 02:49:49;;;;;;;2.08;1.10;;;179.70;2252.80;;;;;;5110735;28;20069;-74
2024/03/24 02:52:14;;;;;;;2.25;1.00;;;179.70;2252.80;;;;;;5109569;28;20024;-74
2024/03/24 02:54:40;;;;;;;2.22;1.20;;;179.70;2252.80;;;;;;5111517;28;20031;-75
2024/03/24 02:57:06;;;;;;;2.00;1.25;;;179.80;2252.80;;;;;;5111544;28;20521;-73
2024/03/24 02:59:32;;;;;;;1.48;1.00;;;179.80;2252.80;;;;;;5108166;28;20487;-74
2024/03/24 03:01:57;;;;;;;2.00;1.10;;;179.90;2252.80;;;;;;5107302;28;20027;-73
2024/03/24 03:04:23;;;;;;;2.25;1.00;;;179.90;2252.80;;;;;;5114887;28;20118;-73
2024/03/24 03:06:49;;;;;;;2.10;1.00;;;179.80;2252.80;;;;;;5115102;28;20027;-79
2024/03/24 03:09:16;;;;;;;2.35;1.10;;;179.90;2252.80;;;;;;5117585;28;20020;-75
2024/03/24 03:11:42;;;;;;;2.13;1.08;;;179.90;2252.80;;;;;;5122386;28;20031;-75
2024/03/24 03:14:08;;;;;;;2.63;1.10;;;179.90;2252.80;;;;;;5115783;28;20035;-74
2024/03/24 03:16:34;;;;;;;3.17;1.00;;;179.80;2252.80;;;;;;5109462;28;20020;-73
2024/03/24 03:19:00;;;;;;;2.70;1.20;;;179.80;2252.80;;;;;;5106017;28;20110;-75
2024/03/24 03:21:26;;;;;;;1.90;1.10;;;179.80;2252.80;;;;;;5114429;28;20023;-73
2024/03/24 03:23:54;;;;;;;3.13;1.30;;;179.70;2252.80;;;;;;5114765;28;20180;-73
2024/03/24 03:26:21;;;;;;;2.55;1.42;;;179.70;2252.80;;;;;;5114778;28;20465;-76
2024/03/24 03:28:47;;;;;;;1.83;1.23;;;179.60;2252.80;;;;;;5113128;28;20023;-78
2024/03/24 03:31:13;;;;;;;3.42;1.30;;;179.60;2252.80;;;;;;5114331;28;20027;-75
2024/03/24 03:33:39;;;;;;;3.90;1.48;;;179.60;2252.80;;;;;;5114951;28;20055;-74
2024/03/24 03:36:05;;;;;;;3.05;1.67;;;179.60;2252.80;;;;;;5108168;28;20055;-74
2024/03/24 03:38:31;;;;;;;3.47;1.73;;;179.60;1920.00;;;;;;5103502;28;20035;-75
2024/03/24 03:40:56;;;;;;;3.38;1.88;;;179.60;2252.80;;;;;;5111228;28;20502;-74
2024/03/24 03:43:23;;;;;;;2.85;1.80;;;179.50;2252.80;;;;;;5106846;28;20043;-74
2024/03/24 03:45:48;;;;;;;2.47;1.63;;;179.50;2252.80;;;;;;5112105;28;20019;-76
2024/03/24 03:48:14;;;;;;;3.40;1.80;;;179.50;2252.80;;;;;;5112953;28;20417;-77
2024/03/24 03:50:41;;;;;;;3.85;1.88;;;179.50;2252.80;;;;;;5106565;28;20017;-75
2024/03/24 03:53:07;;;;;;;3.22;1.85;;;179.40;2252.80;;;;;;5094238;28;20032;-73
2024/03/24 03:55:33;;;;;;;4.25;1.90;;;179.50;2252.80;;;;;;5094301;28;20052;-73
2024/03/24 03:58:00;;;;;;;3.47;2.05;;;179.50;2252.80;;;;;;5093830;28;20034;-74
2024/03/24 04:00:26;;;;;;;4.57;2.25;;;179.40;2252.80;;;;;;5098915;28;20024;-74
2024/03/24 04:02:52;;;;;;;3.53;1.83;;;179.40;2252.80;;;;;;5098167;28;20078;-73
2024/03/24 04:05:18;;;;;;;3.05;1.90;;;179.40;2252.80;;;;;;5093618;28;20056;-75
2024/03/24 04:07:44;;;;;;;2.83;2.10;;;179.40;2252.80;;;;;;5093454;28;20034;-74
2024/03/24 04:10:10;;;;;;;4.47;2.25;;;179.40;2252.80;;;;;;5096580;28;20106;-75
2024/03/24 04:12:36;;;;;;;3.25;2.22;;;179.40;2252.80;;;;;;5113963;28;20028;-73
2024/03/24 04:15:03;;;;;;;3.88;2.47;;;179.40;2252.80;;;;;;5113869;28;20024;-73
2024/03/24 04:17:29;;;;;;;3.22;2.00;;;179.50;2252.80;;;;;;5110141;28;20011;-72
2024/03/24 04:19:56;;;;;;;3.95;2.17;;;179.50;2252.80;;;;;;5105812;28;20024;-75
2024/03/24 04:22:21;;;;;;;2.80;2.00;;;179.40;2252.80;;;;;;5093294;28;20031;-74
2024/03/24 04:24:48;;;;;;;3.13;2.10;;;179.30;2252.80;;;;;;5093234;28;20028;-74
2024/03/24 04:27:14;;;;;;;3.63;2.42;;;179.30;2252.80;;;;;;5098823;28;20023;-74
2024/03/24 04:29:40;;;;;;;4.93;2.70;;;179.30;2252.80;;;;;;5095440;28;20023;-73
2024/03/24 04:32:06;;;;;;;3.95;2.40;;;179.20;2252.80;;;;;;5094176;28;20019;-76
2024/03/24 04:34:32;;;;;;;4.55;2.95;;;179.20;2252.80;;;;;;5074226;28;20492;-74
2024/03/24 04:36:59;;;;;;;4.88;3.00;;;179.20;2252.80;;;;;;5098439;28;20016;-75
2024/03/24 04:39:25;;;;;;;5.43;3.03;;;154.40;2252.80;;;;;;5114569;28;20484;-75
2024/03/24 04:41:50;;;;;;;4.63;2.83;;;154.40;2252.80;;;;;;5114369;28;20188;-74
2024/03/24 04:44:16;;;;;;;3.50;2.08;;;154.40;2252.80;;;;;;5090087;28;20516;-73
2024/03/24 04:46:42;;;;;;;6.68;3.28;;;154.40;2252.80;;;;;;5109924;28;20031;-74
2024/03/24 04:49:08;;;;;;;5.25;2.53;;;154.40;2252.80;;;;;;5113336;28;20060;-73
2024/03/24 04:51:34;;;;;;;3.70;2.00;;;154.40;2252.80;;;;;;5102993;28;20455;-74
2024/03/24 04:54:01;;;;;;;4.32;2.45;;;154.30;2252.80;;;;;;5096918;28;20059;-74
2024/03/24 04:56:27;;;;;;;3.58;2.30;;;154.30;2252.80;;;;;;5097165;28;20016;-74
2024/03/24 04:58:53;;;;;;;4.20;2.50;;;154.30;2252.80;;;;;;5096723;28;20487;-77
2024/03/24 05:01:19;;;;;;;5.25;2.72;;;154.30;2252.80;;;;;;5103546;28;20016;-74
2024/03/24 05:03:44;;;;;;;4.13;2.38;;;154.30;2252.80;;;;;;5112672;28;20086;-74
2024/03/24 05:06:10;;;;;;;4.00;2.20;;;154.30;2252.80;;;;;;5113176;28;20045;-74
2024/03/24 05:08:39;;;;;;;4.90;2.70;;;154.20;2252.80;;;;;;5113420;28;20475;-77
2024/03/24 05:11:11;;;;;;;3.95;2.50;;;154.20;2252.80;;;;;;5112788;28;20110;-76
2024/03/24 05:13:38;;;;;;;3.38;2.17;;;154.30;2252.80;;;;;;5113071;28;20080;-75
2024/03/24 05:16:07;;;;;;;3.80;2.25;;;154.30;2252.80;;;;;;5113085;28;20019;-76
2024/03/24 05:18:34;;;;;;;3.25;2.10;;;154.30;2252.80;;;;;;5087758;28;20035;-74
2024/03/24 05:20:59;;;;;;;5.88;2.30;;;154.30;2252.80;;;;;;5099045;28;20020;-74
2024/03/24 05:23:25;;;;;;;3.58;2.20;;;154.30;2252.80;;;;;;5092249;28;20383;-75
2024/03/24 05:25:54;;;;;;;4.18;2.38;;;154.30;2252.80;;;;;;5094638;28;20020;-77
2024/03/24 05:28:21;;;;;;;3.80;2.30;;;154.30;2252.80;;;;;;5097169;28;20392;-75
2024/03/24 05:30:47;;;;;;;4.03;2.00;;;154.30;2252.80;;;;;;5098441;28;20015;-75
2024/03/24 05:33:13;;;;;;;3.25;1.67;;;154.30;2252.80;;;;;;5108595;28;20776;-75
2024/03/24 05:35:39;;;;;;;4.07;2.10;;;154.30;2252.80;;;;;;5113277;28;20024;-78
2024/03/24 05:38:05;;;;;;;4.93;2.05;;;154.20;2252.80;;;;;;5099427;28;20039;-74
2024/03/24 05:40:31;;;;;;;4.97;2.40;;;154.20;2252.80;;;;;;5112082;28;20020;-74
2024/03/24 05:42:56;;;;;;;3.53;1.98;;;154.20;2252.80;;;;;;5112240;28;20057;-74
2024/03/24 05:45:22;;;;;;;3.60;1.63;;;154.20;2252.80;;;;;;5103521;28;20032;-74
2024/03/24 05:47:48;;;;;;;3.45;1.60;;;154.20;2252.80;;;;;;5112147;28;20027;-77
2024/03/24 05:50:14;;;;;;;2.55;1.52;;;154.20;2252.80;;;;;;5111388;28;20026;-74
2024/03/24 05:52:42;;;;;;;3.20;1.65;;;154.10;2252.80;;;;;;5112123;28;20023;-74
2024/03/24 05:55:09;;;;;;;3.00;1.38;;;154.20;2252.80;;;;;;5112504;28;20016;-74
2024/03/24 05:57:35;;;;;;;3.28;1.55;;;154.20;2252.80;;;;;;5107836;28;20052;-74
2024/03/24 06:00:01;;;;;;;3.33;1.42;;;154.20;2252.80;;;;;;5110085;28;20535;-78
2024/03/24 06:02:27;;;;;;;3.20;1.60;;;154.20;2252.80;;;;;;5093244;28;20074;-73
2024/03/24 06:04:53;;;;;;;2.60;1.30;;;154.10;2252.80;;;;;;5103510;28;20044;-73
2024/03/24 06:07:19;;;;;;;3.72;1.83;;;154.20;2252.80;;;;;;5111550;28;20023;-77
2024/03/24 06:09:45;;;;;;;3.95;1.63;;;154.20;2252.80;;;;;;5114052;28;20024;-75
2024/03/24 06:12:11;;;;;;;4.20;2.00;;;154.20;2252.80;;;;;;5096129;28;20350;-74
2024/03/24 06:14:37;;;;;;;3.50;1.75;;;154.20;2252.80;;;;;;5092115;28;20154;-74
2024/03/24 06:17:04;;;;;;;3.90;1.40;;;154.30;2252.80;;;;;;5091862;28;20043;-74
2024/03/24 06:19:30;;;;;;;5.07;2.03;;;154.30;2252.80;;;;;;5091475;28;20080;-74
2024/03/24 06:21:55;;;;;;;4.80;2.58;;;154.20;2252.80;;;;;;5098973;28;20028;-73
2024/03/24 06:24:21;;;;;;;24.70;9.30;;;154.20;2252.80;;;;;;5104464;28;20035;-74
2024/03/24 06:26:47;;;;;;;6.65;2.50;;;154.20;2252.80;;;;;;5111968;28;20472;-74
2024/03/24 06:29:12;;;;;;;2.83;1.85;;;154.20;2252.80;;;;;;5111538;28;20391;-73
2024/03/24 06:31:38;;;;;;;4.18;2.25;;;154.10;2252.80;;;;;;5111024;28;20019;-76
2024/03/24 06:34:06;;;;;;;6.65;3.88;;;154.00;2252.80;;;;;;5110375;28;20028;-74
2024/03/24 06:36:33;;;;;;;5.88;2.83;;;154.00;2252.80;;;;;;5114318;28;20038;-73
2024/03/24 06:38:59;;;;;;;7.40;2.90;;;154.00;2252.80;;;;;;5109492;28;20066;-74
2024/03/24 06:41:25;;;;;;;5.07;2.20;;;154.00;2252.80;;;;;;5103474;28;20031;-74
2024/03/24 06:43:50;;;;;;;6.70;2.70;;;154.00;2252.80;;;;;;5108880;28;20020;-75
2024/03/24 06:46:16;;;;;;;7.18;3.08;;;;;;;;;;5114095;28;20024;-73
2024/03/24 06:48:42;;;;;;;8.43;4.28;;;;;;;;;;5115026;28;20028;-73
2024/03/24 06:51:08;;;;;;;9.27;3.22;;;154.40;2252.80;;;;;;5109082;28;20456;-73
2024/03/24 06:53:34;;;;;;;3.90;2.15;;;;;;;;;;5100116;28;20040;-74
2024/03/24 06:56:00;;;;;;;5.47;2.72;;;;;;;;;;5098852;28;20024;-74
2024/03/24 06:58:26;;;;;;;5.03;2.70;;;;;;;;;;5095532;28;20028;-73
2024/03/24 07:00:53;;;;;;;7.82;4.40;;;;;;;;;;5095919;28;20024;-77
2024/03/24 07:03:21;;;;;;;6.82;3.70;;;;;;;;;;5106862;28;20040;-74
2024/03/24 07:05:48;;;;;;;8.20;3.55;;;;;;;;;;5103491;28;20155;-75
2024/03/24 07:08:14;;;;;;;8.23;3.03;;;;;;;;;;5095573;28;20151;-75
2024/03/24 07:10:40;;;;;;;8.02;3.63;;;;;;;;;;5108584;28;20049;-75
2024/03/24 07:13:06;;;;;;;9.88;4.28;;;;;;;;;;5114251;28;20065;-74
2024/03/24 07:15:32;;;;;;;8.07;4.55;;;;;;;;;;5113549;28;20157;-74
2024/03/24 07:17:58;;;;;;;11.95;5.30;;;;;;;;;;5095801;28;20043;-73
2024/03/24 07:20:24;;;;;;;12.32;4.45;;;154.30;2252.80;;;;;;5115126;28;20023;-74
2024/03/24 07:22:50;;;;;;;14.45;6.10;;;154.10;2252.80;;;;;;5097652;28;20177;-73
2024/03/24 07:25:16;;;;;;;13.93;6.43;;;154.10;2252.80;;;;;;5094506;28;20050;-73
2024/03/24 07:27:42;;;;;;;13.20;6.28;;;154.00;2252.80;;;;;;5094860;28;20035;-73
2024/03/24 07:30:09;;;;;;;7.32;3.75;;;154.10;2252.80;;;;;;5094362;28;20393;-73
2024/03/24 07:32:35;;;;;;;19.88;10.15;;;154.10;2252.80;;;;;;5094865;28;20016;-74
2024/03/24 07:35:01;;;;;;;11.30;5.40;;;154.20;2252.80;;;;;;5114376;28;20032;-74
2024/03/24 07:37:27;;;;;;;8.38;4.38;;;154.20;2252.80;;;;;;5105929;28;20024;-75
2024/03/24 07:39:53;;;;;;;6.30;3.45;;;154.30;2252.80;;;;;;5096354;28;20084;-73
2024/03/24 07:42:19;;;;;;;4.72;3.03;;;154.20;2252.80;;;;;;5115321;28;20020;-72
2024/03/24 07:44:45;;;;;;;5.35;3.55;;;154.20;2252.80;;;;;;5115162;28;20034;-74
2024/03/24 07:47:10;;;;;;;5.97;3.53;;;154.30;2252.80;;;;;;5103399;28;20031;-73
2024/03/24 07:49:36;;;;;;;5.93;3.42;;;154.40;2252.80;;;;;;5082017;28;20050;-73
2024/03/24 07:52:03;;;;;;;11.30;5.90;;;154.40;2252.80;;;;;;5094114;28;20111;-73
2024/03/24 07:54:29;;;;;;;11.02;5.35;;;154.50;2252.80;;;;;;5099367;28;20032;-74
2024/03/24 07:56:55;;;;;;;6.32;3.90;;;179.20;2252.80;;;;;;5119451;28;20031;-75
2024/03/24 07:59:20;;;;;;;8.60;4.70;;;154.50;2252.80;;;;;;5121553;28;20026;-77
2024/03/24 08:01:46;;;;;;;11.25;7.03;;;154.50;2252.80;;;;;;5119222;28;20023;-79
2024/03/24 08:04:14;;;;;;;12.20;6.85;;;154.50;2252.80;;;;;;5110044;28;20055;-74
2024/03/24 08:06:41;;;;;;;12.43;6.88;;;179.20;2252.80;;;;;;5114775;28;20048;-74
2024/03/24 08:09:07;;;;;;;12.20;6.50;;;179.20;2252.80;;;;;;5099659;28;20060;-74
2024/03/24 08:11:32;;;;;;;25.50;13.23;;;179.20;2252.80;;;;;;5111326;28;20030;-73
2024/03/24 08:13:58;;;;;;;17.42;9.75;;;179.20;2252.80;;;;;;5099368;28;20260;-72
2024/03/24 08:16:23;;;;;;;12.05;7.72;;;154.50;2252.80;;;;;;5094256;28;20075;-73
2024/03/24 08:18:49;;;;;;;13.30;5.80;;;179.20;2252.80;;;;;;5093862;28;20024;-73
2024/03/24 08:21:18;;;;;;;5.85;3.58;;;179.20;2252.80;;;;;;5093738;28;20065;-77
2024/03/24 08:23:43;;;;;;;9.38;4.78;;;154.50;2252.80;;;;;;5102527;28;20072;-73
2024/03/24 08:26:09;;;;;;;9.98;5.68;;;154.40;2252.80;;;;;;5094568;28;20024;-76
2024/03/24 08:28:35;;;;;;;5.78;3.20;;;154.50;2252.80;;;;;;5093466;28;20086;-74
2024/03/24 08:31:01;;;;;;;14.13;8.48;;;154.40;2252.80;;;;;;5093043;28;20062;-71
2024/03/24 08:33:27;;;;;;;26.27;14.80;;;154.50;2252.80;;;;;;5094494;28;20040;-73
2024/03/24 08:35:52;;;;;;;20.27;14.07;;;154.50;2252.80;;;;;;5093299;28;20039;-73
2024/03/24 08:38:18;;;;;;;7.53;4.88;;;179.20;2252.80;;;;;;5093077;28;20047;-72
2024/03/24 08:40:44;;;;;;;10.70;6.10;;;179.20;2252.80;;;;;;5105597;28;20031;-75
2024/03/24 08:43:10;;;;;;;16.70;11.07;;;179.30;2252.80;;;;;;5092631;28;20030;-73
2024/03/24 08:45:36;;;;;;;29.40;16.88;;;179.30;2252.80;;;;;;5093915;28;20113;-75
2024/03/24 08:48:02;;;;;;;34.63;21.52;;;179.40;2252.80;;;;;;5102499;28;20019;-73
2024/03/24 08:50:28;;;;;;;54.72;26.70;;;179.60;2252.80;;;;;;5104035;28;20024;-73
2024/03/24 08:52:54;;;;;;;18.25;8.35;;;179.60;2252.80;;;;;;5082013;28;20506;-74
2024/03/24 08:55:20;;;;;;;82.03;47.50;;;179.90;2252.80;;;;;;5113151;28;20027;-75
2024/03/24 08:57:46;;;;;;;45.78;29.08;;;180.00;2252.80;;;;;;5091227;28;20028;-73
2024/03/24 09:00:12;;;;;;;21.08;13.55;;;180.10;2252.80;;;;;;5112607;28;20027;-76
2024/03/24 09:02:38;;;;;;;4.43;2.35;;;204.90;2252.80;;;;;;5112689;28;20024;-77
2024/03/24 09:05:05;;;;;;;27.50;18.52;;;205.20;2252.80;;;;;;5106844;28;20483;-73
2024/03/24 09:07:31;;;;;;;5.15;2.80;;;;;;;;;;5097896;28;20021;-73
2024/03/24 09:09:57;;;;;;;4.13;2.22;;;205.70;2252.80;;;;;;5112039;28;20031;-74
2024/03/24 09:12:23;;;;;;;10.02;4.53;;;205.50;2252.80;;;;;;5114615;28;20733;-73
2024/03/24 09:14:49;;;;;;;5.85;3.10;;;230.40;2252.80;;;;;;5111930;28;20032;-74
2024/03/24 09:17:14;;;;;;;4.95;2.67;;;230.40;2252.80;;;;;;5112594;28;20031;-74
2024/03/24 09:19:40;;;;;;;5.38;3.30;;;230.90;2252.80;;;;;;5098879;28;20113;-75
2024/03/24 09:22:06;;;;;;;45.83;22.80;;;231.30;2252.80;;;;;;5108970;28;20122;-72
2024/03/24 09:24:35;;;;;;;5.88;3.53;;;;;;;;;;5104562;28;20050;-74
2024/03/24 09:27:02;;;;;;;4.38;2.75;;;256.80;2252.80;;;;;;5111524;28;20027;-77
2024/03/24 09:29:28;;;;;;;5.22;2.20;;;256.90;2252.80;;;;;;5102717;28;20030;-74
2024/03/24 09:31:54;;;;;;;10.10;4.13;;;281.70;2278.40;;;;;;5098184;28;20020;-73
2024/03/24 09:34:22;;;;;;;94.47;39.13;;;256.60;2252.80;;;;;;5097654;28;20063;-74
2024/03/24 09:36:49;;;;;;;13.52;6.45;;;256.50;2252.80;;;;;;5106752;28;20030;-73
2024/03/24 09:39:15;;;;;;;9.15;4.28;;;256.90;2252.80;;;;;;5094070;28;20115;-72
2024/03/24 09:41:45;;;;;;;86.10;40.95;;;282.00;2278.40;;;;;;5111098;28;20447;-73
2024/03/24 09:44:13;;;;;;;30.92;17.88;;;281.60;2278.40;;;;;;5093778;28;20035;-73
2024/03/24 09:46:41;;;;;;;4.72;2.38;;;256.80;2252.80;;;;;;5091834;28;20030;-76
2024/03/24 09:49:14;;;;;;;3.30;1.95;;;281.60;2278.40;;;;;;5093894;28;20177;-76
2024/03/24 09:51:42;;;;;;;5.30;2.33;;;282.30;2278.40;;;;;;5108529;28;20108;-76
2024/03/24 09:54:12;;;;;;;3.95;1.40;;;282.40;2278.40;;;;;;5112086;28;20415;-76
2024/03/24 09:56:39;;;;;;;3.10;1.88;;;282.50;2278.40;;;;;;5109843;28;20032;-74
2024/03/24 09:59:05;;;;;;;3.03;1.30;;;307.40;2304.00;;;;;;5107663;28;20112;-71
2024/03/24 10:01:32;;;;;;;5.13;3.15;;;307.60;2304.00;;;;;;5111634;28;20480;-73
2024/03/24 10:03:58;;;;;;;7.88;3.88;;;307.30;2304.00;;;;;;5115555;28;20068;-74
2024/03/24 10:06:25;;;;;;;3.30;1.60;;;282.40;2278.40;;;;;;5114184;28;20028;-73
2024/03/24 10:08:51;;;;;;;3.85;1.90;;;282.50;2278.40;;;;;;5116421;28;20062;-73
2024/03/24 10:11:25;;;;;;;5.78;2.88;;;307.20;2304.00;;;;;;5118055;28;20028;-74
2024/03/24 10:13:55;;;;;;;12.10;6.15;;;307.60;2304.00;;;;;;5116282;28;20039;-70
2024/03/24 10:16:21;;;;;;;3.63;1.63;;;307.80;2304.00;;;;;;5116690;28;20024;-75
2024/03/24 10:18:51;;;;;;;4.90;2.35;;;308.00;2304.00;;;;;;5116423;28;20024;-73
2024/03/24 10:21:17;;;;;;;4.63;2.78;;;308.00;2304.00;;;;;;5116015;28;20072;-76
2024/03/24 10:23:44;;;;;;;3.35;1.83;;;308.00;2304.00;;;;;;5111960;28;20047;-73
2024/03/24 10:26:09;;;;;;;11.55;4.90;;;333.20;2329.60;;;;;;5113586;28;20026;-75
2024/03/24 10:28:35;;;;;;;4.38;1.80;;;332.80;2329.60;;;;;;5116011;28;20027;-74
2024/03/24 10:31:09;;;;;;;11.82;5.63;;;308.00;2304.00;;;;;;5115915;28;20030;-74
2024/03/24 10:33:36;;;;;;;8.93;4.18;;;307.90;2304.00;;;;;;5108355;28;20514;-75
2024/03/24 10:36:03;;;;;;;51.20;31.48;;;307.60;2304.00;;;;;;5115522;28;20038;-70
2024/03/24 10:38:29;;;;;;;3.63;2.45;;;307.40;2304.00;;;;;;5116341;28;20093;-73
2024/03/24 10:40:57;;;;;;;5.28;3.17;;;307.50;2304.00;;;;;;5116603;28;20471;-74
2024/03/24 10:43:24;;;;;;;4.95;2.50;;;307.60;2304.00;;;;;;5112369;28;20027;-72
2024/03/24 10:45:55;;;;;;;3.40;2.33;;;307.80;2304.00;;;;;;5096947;28;20086;-74
2024/03/24 10:48:28;;;;;;;4.70;2.25;;;307.30;2304.00;;;;;;5089053;28;20161;-72
2024/03/24 10:50:55;;;;;;;5.45;2.20;;;307.40;2304.00;;;;;;5119306;28;20039;-74
2024/03/24 10:53:23;;;;;;;3.50;2.00;;;308.00;2304.00;;;;;;5115624;28;20484;-71
2024/03/24 10:55:51;;;;;;;7.10;3.72;;;333.30;2329.60;;;;;;5116412;28;20024;-73
2024/03/24 10:58:19;;;;;;;4.22;2.45;;;333.60;2329.60;;;;;;5095407;28;20031;-73
2024/03/24 11:00:45;;;;;;;9.10;4.35;;;333.20;2329.60;;;;;;5095155;28;20046;-78
2024/03/24 11:03:13;;;;;;;13.73;7.60;;;333.50;2329.60;;;;;;5095191;28;20089;-75
2024/03/24 11:05:42;;;;;;;15.10;9.60;;;333.60;2329.60;;;;;;5104957;28;20028;-75
2024/03/24 11:08:11;;;;;;;6.82;3.05;;;358.40;2227.20;;;;;;5112753;28;20020;-74
2024/03/24 11:10:36;;;;;;;21.25;14.35;;;333.50;2150.40;;;;;;5120227;28;20488;-74
2024/03/24 11:13:05;;;;;;;6.38;3.35;;;333.30;2201.60;;;;;;5120091;28;20030;-75
2024/03/24 11:15:32;;;;;;;2.78;1.70;;;333.60;2150.40;;;;;;5120568;28;20028;-76
2024/03/24 11:17:59;;;;;;;3.75;1.80;;;358.70;2176.00;;;;;;5117791;28;20038;-75
2024/03/24 11:20:25;;;;;;;9.98;6.13;;;358.80;2124.80;;;;;;5097953;28;20383;-73
2024/03/24 11:22:53;;;;;;;3.15;1.60;;;358.60;2048.00;;;;;;5116261;28;20023;-73
2024/03/24 11:25:19;;;;;;;3.20;1.85;;;358.40;2048.00;;;;;;5110045;28;20040;-75
2024/03/24 11:27:45;;;;;;;3.65;1.92;;;333.70;2150.40;;;;;;5109622;28;20075;-76
2024/03/24 11:30:17;;;;;;;16.17;7.13;;;333.50;2150.40;;;;;;5115441;28;20103;-76
2024/03/24 11:32:49;;;;;;;6.95;3.10;;;333.10;2201.60;;;;;;5113947;28;20024;-75
2024/03/24 11:35:19;;;;;;;9.02;3.85;;;308.10;2278.40;;;;;;5114639;28;20059;-74
2024/03/24 11:37:52;;;;;;;7.03;3.45;;;308.00;2304.00;;;;;;5113418;28;20065;-73
2024/03/24 11:40:30;;;;;;;4.18;2.08;;;308.10;2304.00;;;;;;5109581;28;20491;-74
2024/03/24 11:42:57;;;;;;;12.27;6.25;;;308.00;2304.00;;;;;;5098744;28;20020;-74
2024/03/24 11:45:25;;;;;;;7.43;4.00;;;308.00;2304.00;;;;;;5099856;28;20030;-74
2024/03/24 11:47:51;;;;;;;14.48;8.02;;;308.10;2304.00;;;;;;5102136;28;20088;-74
2024/03/24 11:50:17;;;;;;;10.20;4.90;;;307.90;2304.00;;;;;;5089229;28;20031;-78
2024/03/24 11:52:47;;;;;;;10.57;4.35;;;307.70;2304.00;;;;;;5104701;28;20019;-75
2024/03/24 11:55:14;;;;;;;8.57;3.78;;;307.60;2304.00;;;;;;5101900;28;20035;-73
2024/03/24 11:57:40;;;;;;;8.48;4.00;;;307.40;2304.00;;;;;;5109217;28;20027;-72
2024/03/24 12:00:06;;;;;;;20.73;9.60;;;307.20;2304.00;;;;;;5100400;28;20028;-72
2024/03/24 12:02:32;;;;;;;46.00;18.30;;;282.30;2278.40;;;;;;5107239;28;20552;-74
2024/03/24 12:04:58;;;;;;;12.32;5.35;;;281.90;2278.40;;;;;;5100409;28;20048;-75
2024/03/24 12:07:24;;;;;;;8.80;4.80;;;281.80;2278.40;;;;;;5106086;28;20037;-74
2024/03/24 12:09:52;;;;;;;7.28;3.88;;;281.90;2278.40;;;;;;5102799;28;20476;-74
2024/03/24 12:12:22;;;;;;;14.80;5.70;;;282.00;2278.40;;;;;;5107982;28;20388;-74
2024/03/24 12:14:48;;;;;;;7.05;3.30;;;282.00;2278.40;;;;;;5111793;28;20110;-72
2024/03/24 12:17:14;;;;;;;9.80;4.50;;;282.00;2278.40;;;;;;5112971;28;20099;-72